Time;durP1;ratioP1;P1;durP2;ratioP2;P2;SDS_P1;SDS_P2;PMS_P1;PMS_P2;Temp;Humidity;BMP_temperature;BMP_pressure;BME280_temperature;BME280_humidity;BME280_pressure;Samples;Min_cycle;Max_cycle;Signal;HPM_P1;HPM_P2
2022/12/31 00:01:01;;;;;;;1.75;0.95;;;;;;;21.11;38.31;100100.69;5070675;28;20034;-67
2022/12/31 00:03:27;;;;;;;1.10;0.80;;;;;;;21.14;38.40;100095.00;5074584;28;20035;-67
2022/12/31 00:05:52;;;;;;;2.38;1.13;;;;;;;21.10;38.58;100107.00;5074994;28;20044;-67
2022/12/31 00:08:18;;;;;;;2.08;1.10;;;;;;;21.10;38.29;100105.19;5076686;28;20032;-67
2022/12/31 00:10:43;;;;;;;2.42;1.10;;;;;;;21.11;38.27;100112.09;5076843;28;20172;-67
2022/12/31 00:13:12;;;;;;;1.50;1.23;;;;;;;21.10;38.48;100113.13;5074224;28;20036;-67
2022/12/31 00:15:39;;;;;;;1.30;1.13;;;;;;;21.12;38.34;100124.31;5083038;28;20401;-67
2022/12/31 00:18:05;;;;;;;0.60;0.60;;;;;;;21.10;38.60;100118.41;5075648;28;20040;-67
2022/12/31 00:20:31;;;;;;;1.65;1.10;;;;;;;21.11;38.41;100128.00;5076258;28;20032;-67
2022/12/31 00:22:57;;;;;;;1.38;0.70;;;;;;;21.10;38.40;100125.56;5072929;28;20401;-67
2022/12/31 00:25:23;;;;;;;2.17;1.02;;;;;;;21.09;38.71;100135.31;5077536;28;20032;-67
2022/12/31 00:27:48;;;;;;;1.30;0.77;;;;;;;21.08;38.70;100125.75;5074239;28;20032;-67
2022/12/31 00:30:14;;;;;;;1.95;1.20;;;;;;;21.06;38.74;100121.69;5077156;28;20041;-67
2022/12/31 00:32:39;;;;;;;1.70;1.10;;;;;;;21.06;38.79;100122.50;5082927;28;20040;-67
2022/12/31 00:35:05;;;;;;;1.25;0.80;;;;;;;21.08;38.47;100132.88;5080267;28;20036;-67
2022/12/31 00:37:31;;;;;;;1.42;1.05;;;;;;;21.08;38.61;100132.88;5078084;28;20047;-67
2022/12/31 00:39:56;;;;;;;2.50;0.90;;;;;;;21.08;38.46;100133.69;5081677;28;20375;-67
2022/12/31 00:42:22;;;;;;;2.03;0.98;;;;;;;21.01;38.86;100124.16;5082609;28;20032;-67
2022/12/31 00:44:48;;;;;;;1.65;1.05;;;;;;;21.04;38.69;100124.53;5081561;28;20543;-67
2022/12/31 00:47:13;;;;;;;1.25;0.75;;;;;;;21.03;38.71;100136.16;5081005;28;20040;-65
2022/12/31 00:49:39;;;;;;;0.93;0.90;;;;;;;21.06;38.65;100142.88;5081710;28;20039;-65
2022/12/31 00:52:04;;;;;;;0.73;0.73;;;;;;;21.06;38.57;100137.56;5075725;28;20024;-66
2022/12/31 00:54:30;;;;;;;2.33;1.02;;;;;;;21.05;38.72;100135.94;5080170;28;20036;-65
2022/12/31 00:56:56;;;;;;;0.82;0.70;;;;;;;21.06;38.75;100141.03;5078460;28;20150;-66
2022/12/31 00:59:21;;;;;;;1.63;0.77;;;;;;;20.92;38.89;100123.53;5076187;28;20096;-65
2022/12/31 01:01:48;;;;;;;1.10;0.73;;;;;;;20.96;38.75;100118.63;5078172;28;20060;-66
2022/12/31 01:04:17;;;;;;;1.35;1.10;;;;;;;21.05;38.71;100138.59;5076967;28;20046;-66
2022/12/31 01:06:43;;;;;;;2.00;0.90;;;;;;;21.01;39.00;100137.38;5073926;28;20040;-65
2022/12/31 01:09:11;;;;;;;1.85;0.88;;;;;;;21.07;38.64;100140.00;5074697;28;20046;-66
2022/12/31 01:11:36;;;;;;;1.05;0.95;;;;;;;21.09;38.68;100135.31;5075843;28;20746;-66
2022/12/31 01:14:06;;;;;;;1.80;0.82;;;;;;;21.10;38.86;100141.44;5075405;28;20051;-65
2022/12/31 01:16:40;;;;;;;0.93;0.82;;;;;;;21.09;38.81;100139.81;5070577;28;20023;-66
2022/12/31 01:19:10;;;;;;;0.85;0.75;;;;;;;21.08;38.70;100132.88;5073354;28;20151;-66
2022/12/31 01:21:38;;;;;;;0.70;0.70;;;;;;;21.09;38.83;100145.09;5074052;28;20043;-65
2022/12/31 01:24:04;;;;;;;1.35;0.85;;;;;;;21.10;38.61;100144.06;5078664;28;20036;-66
2022/12/31 01:26:30;;;;;;;1.55;0.63;;;;;;;21.11;38.87;100157.09;5072861;28;20056;-66
2022/12/31 01:28:55;;;;;;;0.95;0.80;;;;;;;21.18;38.39;100148.34;5074155;28;20035;-65
2022/12/31 01:31:22;;;;;;;0.57;0.57;;;;;;;21.28;38.61;100160.19;5075229;28;20501;-66
2022/12/31 01:33:49;;;;;;;1.58;0.85;;;;;;;21.30;38.53;100165.28;5077436;28;20486;-65
2022/12/31 01:36:22;;;;;;;2.13;0.85;;;;;;;21.33;38.47;100170.16;5073617;28;20040;-66
2022/12/31 01:38:48;;;;;;;1.42;0.85;;;;;;;21.33;38.58;100163.03;5073428;28;20048;-66
2022/12/31 01:41:17;;;;;;;0.57;0.38;;;;;;;21.32;38.41;100160.59;5072654;28;20044;-65
2022/12/31 01:43:57;;;;;;;1.20;0.63;;;;;;;21.31;38.41;100167.72;5073192;28;20042;-66
2022/12/31 01:46:25;;;;;;;;;;;;;;;21.30;38.73;100155.50;5073508;28;20478;-66
2022/12/31 01:48:54;;;;;;;;;;;;;;;21.30;38.73;100152.03;5075671;28;19923;-65
2022/12/31 01:51:19;;;;;;;;;;;;;;;21.29;38.54;100161.81;5077643;28;19923;-65
2022/12/31 01:53:45;;;;;;;;;;;;;;;21.30;38.58;100160.78;5073371;28;19927;-66
2022/12/31 01:56:11;;;;;;;;;;;;;;;21.29;38.87;100161.81;5074815;28;19939;-66
2022/12/31 01:58:41;;;;;;;;;;;;;;;21.30;38.75;100168.75;5072237;28;19923;-66
2022/12/31 02:01:07;;;;;;;;;;;;;;;21.28;38.66;100169.97;5074581;28;19912;-65
2022/12/31 02:03:33;;;;;;;;;;;;;;;21.28;38.78;100169.97;5073448;28;19985;-66
2022/12/31 02:05:59;;;;;;;;;;;;;;;21.29;38.83;100171.59;5075092;28;19931;-65
2022/12/31 02:08:24;;;;;;;;;;;;;;;21.30;38.68;100175.88;5074935;28;20663;-66
2022/12/31 02:10:49;;;;;;;;;;;;;;;21.29;38.68;100176.88;5072543;28;20366;-66
2022/12/31 02:13:15;;;;;;;;;;;;;;;21.27;38.89;100165.69;5073714;28;19955;-65
2022/12/31 02:15:49;;;;;;;;;;;;;;;21.24;38.94;100166.91;5076197;28;20711;-65
2022/12/31 02:18:27;;;;;;;;;;;;;;;21.26;38.78;100161.41;5075194;28;20334;-65
2022/12/31 02:21:17;;;;;;;;;;;;;;;21.25;38.83;100165.09;5075450;28;19916;-66
2022/12/31 02:23:52;;;;;;;;;;;;;;;21.20;38.94;100149.78;5070677;28;20831;-66
2022/12/31 02:26:23;;;;;;;;;;;;;;;21.21;38.99;100146.13;5089137;27;19924;-66
2022/12/31 02:29:06;;;;;;;;;;;;;;;21.23;38.99;100143.25;5074603;28;19920;-65
2022/12/31 02:31:57;;;;;;;;;;;;;;;21.19;39.03;100144.69;5077648;28;19922;-65
2022/12/31 02:34:22;;;;;;;;;;;;;;;21.23;39.02;100152.03;5078435;28;19980;-65
2022/12/31 02:36:49;;;;;;;;;;;;;;;21.22;38.98;100147.75;5076274;28;20410;-66
2022/12/31 02:39:15;;;;;;;;;;;;;;;21.18;39.08;100141.22;5076947;28;19955;-65
2022/12/31 02:41:50;;;;;;;;;;;;;;;21.22;38.94;100144.28;5079404;28;19956;-66
2022/12/31 02:44:23;;;;;;;;;;;;;;;21.21;39.04;100147.97;5076765;28;21034;-66
2022/12/31 02:46:54;;;;;;;;;;;;;;;21.17;38.94;100141.41;5077787;28;19916;-66
2022/12/31 02:49:25;;;;;;;;;;;;;;;21.16;39.15;100147.72;5076629;28;20006;-66
2022/12/31 02:51:58;;;;;;;;;;;;;;;21.18;39.21;100146.50;5078173;28;20358;-65
2022/12/31 02:54:29;;;;;;;;;;;;;;;21.17;39.21;100152.00;5081075;28;19916;-66
2022/12/31 02:56:57;;;;;;;;;;;;;;;21.08;39.14;100136.34;5075513;28;19923;-65
2022/12/31 03:02:32;;;;;;;;;;;;;;;21.14;39.07;100145.28;5072222;28;20284;-66
2022/12/31 03:05:00;;;;;;;;;;;;;;;21.13;39.19;100149.78;5072490;28;19916;-65
2022/12/31 03:07:27;;;;;;;;;;;;;;;21.14;39.23;100145.28;5073021;28;20378;-66
2022/12/31 03:09:52;;;;;;;;;;;;;;;21.12;39.21;100149.97;5070725;28;19919;-66
2022/12/31 03:15:06;;;;;;;;;;;;;;;21.12;39.34;100140.19;5070925;28;19920;-66
2022/12/31 03:17:32;;;;;;;;;;;;;;;21.12;39.06;100137.56;5070120;28;19922;-66
2022/12/31 03:22:41;;;;;;;;;;;;;;;21.09;39.19;100139.81;5069068;28;20198;-66
2022/12/31 03:27:54;;;;;;;;;;;;;;;21.06;39.35;100161.41;5076628;28;19923;-66
2022/12/31 03:30:20;;;;;;;;;;;;;;;21.07;39.32;100158.53;5073020;28;19916;-65
2022/12/31 03:32:46;;;;;;;;;;;;;;;21.07;39.35;100168.31;5072538;28;19916;-65
2022/12/31 03:35:12;;;;;;;;;;;;;;;21.03;39.39;100156.50;5073414;28;19916;-66
2022/12/31 03:37:39;;;;;;;;;;;;;;;21.08;39.29;100146.94;5074415;28;19920;-66
2022/12/31 03:40:05;;;;;;;;;;;;;;;21.10;39.25;100146.72;5067800;28;19944;-65
2022/12/31 03:42:30;;;;;;;;;;;;;;;21.12;39.12;100137.56;5082628;28;20422;-65
2022/12/31 03:44:56;;;;;;;;;;;;;;;21.04;39.05;100129.84;5074377;28;19923;-66
2022/12/31 03:47:21;;;;;;;;;;;;;;;21.09;39.40;100140.63;5080077;28;19924;-65
2022/12/31 03:49:46;;;;;;;;;;;;;;;21.07;39.45;100147.13;5080665;28;19915;-66
2022/12/31 03:52:12;;;;;;;;;;;;;;;21.09;39.36;100145.09;5082331;28;19923;-65
2022/12/31 03:54:37;;;;;;;;;;;;;;;21.11;39.15;100151.81;5082951;28;19958;-66
2022/12/31 03:57:02;;;;;;;;;;;;;;;21.15;39.27;100151.41;5078611;28;19920;-66
2022/12/31 03:59:28;;;;;;;;;;;;;;;21.21;39.12;100150.59;5079036;28;19977;-66
2022/12/31 04:01:53;;;;;;;;;;;;;;;21.22;38.93;100158.34;5079324;28;19920;-66
2022/12/31 04:04:18;;;;;;;;;;;;;;;21.25;38.92;100157.13;5077968;28;19942;-65
2022/12/31 04:06:44;;;;;;;;;;;;;;;21.23;38.87;100159.16;5078591;28;19927;-65
2022/12/31 04:09:09;;;;;;;;;;;;;;;21.23;39.14;100164.44;5078949;28;19966;-66
2022/12/31 04:11:34;;;;;;;;;;;;;;;21.13;39.18;100152.41;5078106;28;19919;-66
2022/12/31 04:14:00;;;;;;;;;;;;;;;21.11;39.20;100148.34;5080192;28;19927;-66
2022/12/31 04:16:25;;;;;;;;;;;;;;;21.20;39.26;100168.31;5082714;28;19919;-66
2022/12/31 04:18:51;;;;;;;;;;;;;;;21.22;39.20;100168.94;5079792;28;19923;-65
2022/12/31 04:21:16;;;;;;;;;;;;;;;21.22;39.23;100166.28;5082480;28;19923;-65
2022/12/31 04:23:41;;;;;;;;;;;;;;;21.18;39.09;100178.28;5078805;28;20995;-66
2022/12/31 04:26:07;;;;;;;;;;;;;;;21.19;39.34;100171.19;5078114;28;19912;-66
2022/12/31 04:28:32;;;;;;;;;;;;;;;21.21;39.08;100175.25;5079377;28;19960;-66
2022/12/31 04:30:57;;;;;;;;;;;;;;;21.18;39.23;100177.47;5079529;28;19985;-66
2022/12/31 04:33:23;;;;;;;;;;;;;;;21.16;39.39;100180.31;5083891;28;20239;-66
2022/12/31 04:35:48;;;;;;;;;;;;;;;21.18;39.18;100177.47;5085364;28;20253;-66
2022/12/31 04:38:14;;;;;;;;;;;;;;;21.14;39.29;100163.81;5085002;28;19955;-66
2022/12/31 04:41:15;;;;;;;;;;;;;;;21.13;39.36;100160.38;5082056;28;19931;-66
2022/12/31 04:43:24;;;;;;;;;;;;;;;21.13;39.52;100168.31;5082663;28;19954;-66
2022/12/31 04:45:51;;;;;;;;;;;;;;;21.13;39.37;100170.94;5081385;28;19927;-66
2022/12/31 04:48:16;;;;;;;;;;;;;;;21.11;39.31;100173.00;5085156;28;20293;-66
2022/12/31 04:50:42;;;;;;;;;;;;;;;21.15;39.33;100168.09;5079886;28;20003;-65
2022/12/31 04:53:07;;;;;;;;;;;;;;;21.13;39.36;100159.56;5082960;28;19915;-66
2022/12/31 04:55:32;;;;;;;;;;;;;;;21.15;39.37;100160.16;5081547;28;19977;-65
2022/12/31 04:57:57;;;;;;;;;;;;;;;21.13;39.41;100178.91;5075262;28;20026;-66
2022/12/31 05:00:23;;;;;;;;;;;;;;;21.06;39.41;100162.22;5079227;28;20016;-66
2022/12/31 05:02:48;;;;;;;;;;;;;;;21.11;39.50;100169.53;5075948;28;19970;-66
2022/12/31 05:05:13;;;;;;;;;;;;;;;21.12;39.13;100168.50;5075160;28;19958;-66
2022/12/31 05:07:39;;;;;;;;;;;;;;;21.10;39.53;100166.06;5073283;28;19955;-66
2022/12/31 05:10:04;;;;;;;;;;;;;;;21.10;39.46;100162.63;5073601;28;20654;-66
2022/12/31 05:12:30;;;;;;;;;;;;;;;21.11;39.28;100172.19;5075213;28;20373;-65
2022/12/31 05:14:55;;;;;;;;;;;;;;;21.08;39.32;100151.41;5074152;28;20392;-66
2022/12/31 05:17:21;;;;;;;;;;;;;;;21.10;39.58;100144.91;5077527;28;19946;-66
2022/12/31 05:19:46;;;;;;;;;;;;;;;21.09;39.58;100143.25;5070663;28;19966;-66
2022/12/31 05:22:30;;;;;;;;;;;;;;;21.08;39.59;100143.47;5073901;28;20362;-66
2022/12/31 05:24:56;;;;;;;;;;;;;;;21.11;39.50;100138.56;5075140;28;19927;-66
2022/12/31 05:27:21;;;;;;;;;;;;;;;21.15;39.40;100136.34;5071069;28;20373;-66
2022/12/31 05:29:47;;;;;;;;;;;;;;;21.14;39.42;100124.13;5075724;28;19963;-66
2022/12/31 05:32:12;;;;;;;;;;;;;;;21.25;39.28;100128.81;5080222;28;19916;-67
2022/12/31 05:34:38;;;;;;;;;;;;;;;21.29;38.96;100130.03;5077549;28;19962;-66
2022/12/31 05:37:03;;;;;;;;;;;;;;;21.29;38.99;100132.69;5075040;28;19919;-66
2022/12/31 05:39:28;;;;;;;;;;;;;;;21.27;38.85;100145.31;5072875;28;19932;-66
2022/12/31 05:41:54;;;;;;;;;;;;;;;21.25;39.17;100146.56;5076409;28;19924;-66
2022/12/31 05:44:19;;;;;;;;;;;;;;;21.28;39.22;100156.72;5075309;28;20021;-66
2022/12/31 05:46:46;;;;;;;;;;;;;;;21.26;39.38;100158.78;5073794;28;20369;-66
2022/12/31 05:49:11;;;;;;;;;;;;;;;21.26;39.37;100159.59;5076671;28;19919;-66
2022/12/31 05:51:36;;;;;;;;;;;;;;;21.25;39.20;100165.09;5075729;28;20562;-66
2022/12/31 05:54:02;;;;;;;;;;;;;;;21.24;39.44;100160.78;5074569;28;19933;-66
2022/12/31 05:56:27;;;;;;;;;;;;;;;21.22;39.29;100162.81;5073895;28;20620;-66
2022/12/31 05:58:52;;;;;;;;;;;;;;;21.24;39.29;100164.28;5073632;28;20350;-66
2022/12/31 06:01:18;;;;;;;;;;;;;;;21.19;39.30;100176.47;5073050;28;20674;-66
2022/12/31 06:03:43;;;;;;;;;;;;;;;21.21;39.40;100179.72;5073935;28;20047;-66
2022/12/31 06:06:08;;;;;;;;;;;;;;;21.23;39.48;100177.69;5073946;28;20003;-66
2022/12/31 06:08:34;;;;;;;;;;;;;;;21.18;39.45;100186.22;5072043;28;19966;-66
2022/12/31 06:10:59;;;;;;;;;;;;;;;21.19;39.37;100176.47;5075077;28;19931;-66
2022/12/31 06:13:24;;;;;;;;;;;;;;;21.19;39.37;100179.13;5072517;28;19974;-66
2022/12/31 06:15:50;;;;;;;;;;;;;;;21.20;39.31;100186.03;5074708;28;19924;-66
2022/12/31 06:18:15;;;;;;;;;;;;;;;21.18;39.38;100191.50;5074566;28;19929;-66
2022/12/31 06:20:40;;;;;;;;;;;;;;;21.17;39.58;100200.47;5073094;28;20474;-66
2022/12/31 06:23:06;;;;;;;;;;;;;;;21.16;39.48;100198.84;5076192;28;19947;-66
2022/12/31 06:25:34;;;;;;;;;;;;;;;21.16;39.67;100206.78;5071782;28;19920;-67
2022/12/31 06:27:59;;;;;;;;;;;;;;;21.15;39.64;100214.94;5076738;28;19916;-66
2022/12/31 06:30:25;;;;;;;;;;;;;;;21.16;39.59;100208.63;5074650;28;19926;-66
2022/12/31 06:32:50;;;;;;;;;;;;;;;21.13;39.69;100215.16;5079505;28;19927;-66
2022/12/31 06:35:16;;;;;;;;;;;;;;;21.14;39.54;100211.47;5072398;28;19916;-65
2022/12/31 06:37:42;;;;;;;;;;;;;;;21.14;39.40;100198.25;5080238;28;20289;-66
2022/12/31 06:40:07;;;;;;;;;;;;;;;21.12;39.47;100205.56;5078775;28;19924;-66
2022/12/31 06:42:33;;;;;;;;;;;;;;;21.04;39.44;100196.00;5082787;28;20792;-67
2022/12/31 06:44:58;;;;;;;;;;;;;;;21.12;39.57;100203.75;5077601;28;19955;-67
2022/12/31 06:47:24;;;;;;;;;;;;;;;21.15;39.73;100209.66;5077228;28;19923;-66
2022/12/31 06:49:49;;;;;;;;;;;;;;;21.11;39.74;100230.41;5080909;28;20194;-66
2022/12/31 06:52:14;;;;;;;;;;;;;;;21.12;39.62;100216.97;5081520;28;19920;-66
2022/12/31 06:54:40;;;;;;;;;;;;;;;21.14;39.73;100182.34;5080533;28;20401;-66
2022/12/31 06:57:05;;;;;;;;;;;;;;;21.04;39.67;100172.19;5080223;28;20385;-66
2022/12/31 06:59:31;;;;;;;;;;;;;;;21.15;39.64;100185.81;5077754;28;19928;-66
2022/12/31 07:02:15;;;;;;;;;;;;;;;21.14;39.96;100187.66;5079297;28;20365;-67
2022/12/31 07:04:50;;;;;;;;;;;;;;;21.15;39.87;100185.81;5075378;28;20335;-66
2022/12/31 07:07:18;;;;;;;;;;;;;;;21.12;39.70;100192.34;5072722;28;19916;-66
2022/12/31 07:10:00;;;;;;;;;;;;;;;21.13;39.97;100188.66;5071978;28;20056;-66
2022/12/31 07:12:35;;;;;;;;;;;;;;;21.15;40.00;100191.13;5071881;28;20422;-66
2022/12/31 07:15:05;;;;;;;;;;;;;;;21.13;40.13;100197.44;5073994;28;19971;-66
2022/12/31 07:17:48;;;;;;;;;;;;;;;21.13;39.90;100191.31;5069558;28;19924;-66
2022/12/31 07:20:15;;;;;;;;;;;;;;;21.15;39.98;100186.63;5073769;28;20354;-66
2022/12/31 07:22:40;;;;;;;;;;;;;;;21.17;39.97;100197.00;5069893;28;19924;-66
2022/12/31 07:25:06;;;;;;;;;;;;;;;21.15;39.83;100210.47;5072958;28;19962;-67
2022/12/31 07:27:44;;;;;;;;;;;;;;;21.13;40.12;100205.38;5072488;28;19986;-66
2022/12/31 07:30:18;;;;;;;;;;;;;;;21.14;40.12;100206.19;5075090;28;19926;-66
2022/12/31 07:33:02;;;;;;;;;;;;;;;21.16;39.88;100203.34;5079556;28;20061;-66
2022/12/31 07:36:06;;;;;;;;;;;;;;;21.15;39.94;100210.47;5074851;28;19959;-66
2022/12/31 07:38:39;;;;;;;;;;;;;;;21.16;40.04;100203.34;4990540;28;19921;-66
2022/12/31 07:41:05;;;;;;;;;;;;;;;21.15;40.03;100210.47;4991274;28;19925;-66
2022/12/31 07:43:35;;;;;;;;;;;;;;;21.16;40.09;100222.69;5025866;28;19916;-66
2022/12/31 07:46:24;;;;;;;;;;;;;;;21.16;39.90;100217.38;5075948;28;19947;-66
2022/12/31 07:48:49;;;;;;;;;;;;;;;21.15;40.15;100212.28;5054718;28;19924;-66
2022/12/31 07:51:15;;;;;;;;;;;;;;;21.16;40.22;100208.63;5078239;28;19920;-66
2022/12/31 07:53:40;;;;;;;;;;;;;;;21.15;40.27;100214.94;5072999;28;19927;-66
2022/12/31 07:56:07;;;;;;;;;;;;;;;21.17;39.85;100226.13;5072800;28;19927;-66
2022/12/31 07:58:35;;;;;;;;;;;;;;;21.25;39.73;100237.41;5073663;28;20038;-66
2022/12/31 08:01:01;;;;;;;;;;;;;;;21.37;39.66;100237.63;5076172;28;20185;-66
2022/12/31 08:03:33;;;;;;;;;;;;;;;21.48;38.99;100207.84;5071662;28;21712;-66
2022/12/31 08:06:12;;;;;;;;;;;;;;;21.51;39.22;100202.13;5077940;28;19918;-66
2022/12/31 08:08:38;;;;;;;;;;;;;;;21.50;39.32;100189.91;5074962;28;19995;-66
2022/12/31 08:11:03;;;;;;;;;;;;;;;21.47;39.41;100195.63;5076129;28;19991;-67
2022/12/31 08:13:29;;;;;;;;;;;;;;;21.44;39.43;100217.22;5073312;28;19915;-66
2022/12/31 08:15:55;;;;;;;;;;;;;;;21.46;39.38;100227.63;5069039;28;19975;-67
2022/12/31 08:18:20;;;;;;;;;;;;;;;21.49;39.40;100220.06;5074980;28;20509;-66
2022/12/31 08:20:54;;;;;;;;;;;;;;;21.45;39.46;100207.44;5072880;28;20723;-66
2022/12/31 08:23:40;;;;;;;;;;;;;;;21.42;39.50;100209.50;5072457;28;20122;-66
2022/12/31 08:26:12;;;;;;;;;;;;;;;21.41;39.54;100202.56;5073801;28;19926;-66
2022/12/31 08:28:40;;;;;;;;;;;;;;;21.41;39.85;100207.03;5076347;28;20413;-66
2022/12/31 08:31:20;;;;;;;;;;;;;;;21.39;39.82;100193.19;5074083;28;19920;-66
2022/12/31 08:33:56;;;;;;;;;;;;;;;21.40;39.66;100194.81;5073480;28;19954;-66
2022/12/31 08:36:29;;;;;;;;;;;;;;;21.38;39.83;100191.56;5070547;28;19912;-66
2022/12/31 08:39:06;;;;;;;;;;;;;;;21.38;40.16;100195.03;5075557;28;20429;-66
2022/12/31 08:41:37;;;;;;;;;;;;;;;21.36;39.97;100190.94;5071663;28;19955;-66
2022/12/31 08:44:06;;;;;;;;;;;;;;;21.34;39.96;100192.97;5072907;28;19916;-66
2022/12/31 08:46:43;;;;;;;;;;;;;;;21.35;40.11;100197.25;5074655;28;19912;-66
2022/12/31 08:49:09;;;;;;;;;;;;;;;21.35;39.88;100191.94;5073338;28;20019;-66
2022/12/31 08:51:34;;;;;;;;;;;;;;;21.35;40.20;100200.72;5075441;28;20620;-66
2022/12/31 08:54:00;;;;;;;;;;;;;;;21.31;40.20;100194.19;5079841;28;20017;-66
2022/12/31 08:56:37;;;;;;;;;;;;;;;21.28;40.03;100191.16;5076022;28;19923;-67
2022/12/31 08:59:35;;;;;;;;;;;;;;;21.29;40.32;100195.44;5081877;28;20358;-66
2022/12/31 09:02:06;;;;;;;;;;;;;;;21.28;40.33;100184.03;5030604;28;20298;-67
2022/12/31 09:04:54;;;;;;;;;;;;;;;21.30;39.93;100197.88;5077644;28;19978;-66
2022/12/31 09:07:26;;;;;;;;;;;;;;;21.30;40.06;100187.28;5058006;28;19922;-67
2022/12/31 09:10:04;;;;;;;;;;;;;;;21.30;40.29;100202.34;5073802;28;19916;-66
2022/12/31 09:12:59;;;;;;;;;;;;;;;21.29;40.38;100200.72;5075869;28;19947;-65
2022/12/31 09:15:47;;;;;;;;;;;;;;;21.29;40.37;100206.03;5060123;28;19977;-66
2022/12/31 09:18:13;;;;;;;;;;;;;;;21.30;40.45;100210.28;5080755;28;19924;-66
2022/12/31 09:20:39;;;;;;;;;;;;;;;21.27;40.55;100205.41;5081831;28;19919;-66
2022/12/31 09:23:05;;;;;;;;;;;;;;;21.26;40.33;100203.78;5080530;28;20647;-66
2022/12/31 09:25:30;;;;;;;;;;;;;;;21.26;40.43;100207.25;5079036;28;20610;-67
2022/12/31 09:28:16;;;;;;;;;;;;;;;21.26;40.62;100217.03;5077791;28;19922;-66
2022/12/31 09:30:42;;;;;;;;;;;;;;;21.23;41.13;100199.69;5076095;28;19916;-64
2022/12/31 09:33:11;;;;;;;;;;;;;;;21.27;40.79;100202.75;5072545;28;19916;-62
2022/12/31 09:35:36;;;;;;;;;;;;;;;21.27;40.53;100224.75;5073384;28;20287;-63
2022/12/31 09:38:05;;;;;;;;;;;;;;;21.32;40.44;100205.59;5074085;28;19931;-63
2022/12/31 09:40:49;;;;;;;;;;;;;;;21.34;40.24;100204.38;5072014;28;19923;-62
2022/12/31 09:43:23;;;;;;;;;;;;;;;21.37;40.18;100204.00;5069215;28;19923;-63
2022/12/31 09:46:07;;;;;;;;;;;;;;;21.37;40.14;100214.59;5070429;28;19926;-63
2022/12/31 09:48:55;;;;;;;;;;;;;;;21.39;40.21;100193.19;5078643;28;20650;-64
2022/12/31 09:51:21;;;;;;;;;;;;;;;21.36;40.14;100198.88;5073314;28;19966;-63
2022/12/31 09:53:55;;;;;;;;;;;;;;;21.39;40.29;100209.09;5078833;28;19993;-63
2022/12/31 09:56:41;;;;;;;;;;;;;;;21.45;39.96;100218.03;5075249;28;19919;-63
2022/12/31 09:59:06;;;;;;;;;;;;;;;21.44;40.06;100230.47;5081242;28;19927;-64
2022/12/31 10:01:35;;;;;;;;;;;;;;;21.45;39.98;100244.53;5078555;28;19920;-62
2022/12/31 10:04:13;;;;;;;;;;;;;;;21.48;39.92;100246.75;5075382;28;19920;-63
2022/12/31 10:06:38;;;;;;;;;;;;;;;21.45;40.10;100252.47;5074743;28;19916;-62
2022/12/31 10:09:15;;;;;;;;;;;;;;;21.42;40.32;100257.16;5076108;28;19919;-63
2022/12/31 10:12:07;;;;;;;;;;;;;;;21.44;40.20;100258.78;5076184;28;19920;-63
2022/12/31 10:14:52;;;;;;;;;;;;;;;21.41;40.24;100244.13;5069294;28;19968;-62
2022/12/31 10:17:37;;;;;;;;;;;;;;;21.41;40.46;100262.66;5071349;28;20344;-61
2022/12/31 10:20:09;;;;;;;;;;;;;;;21.32;40.04;100232.09;5071936;28;19947;-63
2022/12/31 10:22:35;;;;;;;;;;;;;;;21.38;40.11;100265.72;5073641;28;19961;-62
2022/12/31 10:25:03;;;;;;;;;;;;;;;21.37;40.27;100264.91;5068909;28;19920;-64
2022/12/31 10:27:28;;;;;;;;;;;;;;;21.42;40.23;100256.34;5075176;28;20014;-64
2022/12/31 10:30:00;;;;;;;;;;;;;;;21.46;39.99;100265.50;5069822;28;20376;-63
2022/12/31 10:32:29;;;;;;;;;;;;;;;21.48;40.11;100266.13;5069271;28;19916;-63
2022/12/31 10:34:59;;;;;;;;;;;;;;;21.44;40.11;100278.16;5071015;28;19916;-63
2022/12/31 10:37:43;;;;;;;;;;;;;;;21.48;40.13;100271.41;5072402;28;20292;-61
2022/12/31 10:40:47;;;;;;;;;;;;;;;21.47;39.87;100280.38;5072341;28;19962;-64
2022/12/31 10:43:28;;;;;;;;;;;;;;;21.46;40.19;100299.13;5018661;28;19921;-63
2022/12/31 10:46:05;;;;;;;;;;;;;;;21.45;40.30;100278.97;5029460;28;19916;-64
2022/12/31 10:48:33;;;;;;;;;;;;;;;21.48;40.19;100283.84;5057501;28;19920;-68
2022/12/31 10:51:01;;;;;;;;;;;;;;;21.44;40.17;100269.38;5069594;28;19993;-64
2022/12/31 10:53:33;;;;;;;;;;;;;;;21.46;40.13;100273.47;5074432;28;20366;-63
2022/12/31 10:56:04;;;;;;;;;;;;;;;21.43;40.28;100263.28;5071848;28;19916;-64
2022/12/31 10:58:48;;;;;;;;;;;;;;;21.40;40.13;100261.84;5069813;28;20277;-63
2022/12/31 11:01:28;;;;;;;;;;;;;;;21.38;40.41;100255.13;5072181;28;19960;-64
2022/12/31 11:04:04;;;;;;;;;;;;;;;21.40;40.29;100279.56;5073434;28;19916;-64
2022/12/31 11:06:52;;;;;;;;;;;;;;;21.44;40.51;100250.84;5067964;28;19923;-63
2022/12/31 11:09:36;;;;;;;;;;;;;;;21.46;40.24;100262.88;5042092;28;19926;-64
2022/12/31 11:12:07;;;;;;;;;;;;;;;21.46;40.14;100277.94;5073087;28;19916;-66
2022/12/31 11:14:41;;;;;;;;;;;;;;;21.46;40.45;100262.88;5072481;28;21716;-63
2022/12/31 11:17:22;;;;;;;;;;;;;;;21.49;40.46;100261.63;5069313;28;19919;-63
2022/12/31 11:19:54;;;;;;;;;;;;;;;21.48;40.43;100254.72;5072099;28;19930;-63
2022/12/31 11:22:23;;;;;;;;;;;;;;;21.44;40.82;100259.59;5072552;28;19912;-62
2022/12/31 11:24:48;;;;;;;;;;;;;;;21.44;40.64;100279.97;5077435;28;20012;-63
2022/12/31 11:27:40;;;;;;;;;;;;;;;21.46;40.89;100293.84;5079567;28;20402;-65
2022/12/31 11:30:15;;;;;;;;;;;;;;;21.44;40.85;100264.91;5074019;28;19920;-63
2022/12/31 11:32:40;;;;;;;;;;;;;;;21.43;40.94;100271.22;5070395;28;19920;-64
2022/12/31 11:35:19;;;;;;;;;;;;;;;21.38;41.22;100268.38;5069458;28;20026;-63
2022/12/31 11:37:53;;;;;;;;;;;;;;;21.43;40.83;100284.47;5066560;28;19931;-63
2022/12/31 11:40:19;;;;;;;;;;;;;;;21.42;40.84;100314.63;5067705;28;19971;-61
2022/12/31 11:42:50;;;;;;;;;;;;;;;21.41;41.20;100284.66;5070400;28;20094;-63
2022/12/31 11:45:21;;;;;;;;;;;;;;;21.37;41.01;100287.94;5068583;28;19976;-63
2022/12/31 11:48:05;;;;;;;;;;;;;;;21.40;41.10;100287.53;5068379;28;19927;-63
2022/12/31 11:50:51;;;;;;;;;;;;;;;21.37;41.12;100285.28;5069396;28;19996;-63
2022/12/31 11:53:35;;;;;;;;;;;;;;;21.38;41.22;100300.16;5056459;28;20655;-62
2022/12/31 11:56:17;;;;;;;;;;;;;;;21.39;41.16;100283.25;5071163;28;19949;-63
2022/12/31 11:58:47;;;;;;;;;;;;;;;21.35;41.42;100289.94;5069721;28;19959;-67
2022/12/31 12:01:32;;;;;;;;;;;;;;;21.36;41.34;100294.22;5069842;28;21130;-63
2022/12/31 12:03:58;;;;;;;;;;;;;;;21.38;41.47;100289.56;5073579;28;20426;-63
2022/12/31 12:06:26;;;;;;;;;;;;;;;21.38;41.29;100290.38;5069002;28;19932;-63
2022/12/31 12:08:54;;;;;;;;;;;;;;;21.38;41.48;100300.16;5072379;28;20018;-63
2022/12/31 12:11:22;;;;;;;;;;;;;;;21.33;41.33;100299.94;5070464;28;20028;-63
2022/12/31 12:13:48;;;;;;;;;;;;;;;21.34;41.47;100275.88;5068438;28;19953;-63
2022/12/31 12:16:13;;;;;;;;;;;;;;;21.36;41.31;100278.31;5071909;28;19920;-63
2022/12/31 12:18:41;;;;;;;;;;;;;;;21.32;41.50;100269.97;5070945;28;21588;-63
2022/12/31 12:21:11;;;;;;;;;;;;;;;21.33;41.55;100279.56;5075375;28;20007;-63
2022/12/31 12:23:37;;;;;;;;;;;;;;;21.35;41.63;100279.34;5068380;28;20462;-63
2022/12/31 12:26:03;;;;;;;;;;;;;;;21.34;41.39;100294.44;5073169;28;19912;-63
2022/12/31 12:28:29;;;;;;;;;;;;;;;21.33;41.67;100287.50;5076675;28;19930;-63
2022/12/31 12:30:59;;;;;;;;;;;;;;;21.34;41.57;100267.94;5071142;28;19919;-64
2022/12/31 12:33:25;;;;;;;;;;;;;;;21.23;41.62;100267.72;5070830;28;19927;-63
2022/12/31 12:35:51;;;;;;;;;;;;;;;21.31;41.50;100264.88;5075321;28;20018;-63
2022/12/31 12:38:18;;;;;;;;;;;;;;;21.32;41.39;100274.47;5070277;28;19928;-62
2022/12/31 12:40:57;;;;;;;;;;;;;;;21.32;41.36;100263.88;5072361;28;20020;-63
2022/12/31 12:43:25;;;;;;;;;;;;;;;21.29;41.40;100273.03;5074739;28;19915;-63
2022/12/31 12:45:50;;;;;;;;;;;;;;;21.33;41.37;100279.56;5070029;28;19966;-62
2022/12/31 12:48:18;;;;;;;;;;;;;;;21.33;41.51;100268.16;5072273;28;20010;-63
2022/12/31 12:50:45;;;;;;;;;;;;;;;21.33;41.62;100273.44;5071113;28;19923;-63